Time;durP1;ratioP1;P1;durP2;ratioP2;P2;SDS_P1;SDS_P2;PMS_P1;PMS_P2;Temp;Humidity;BMP_temperature;BMP_pressure;BME280_temperature;BME280_humidity;BME280_pressure;Samples;Min_cycle;Max_cycle;Signal;HPM_P1;HPM_P2
2023/06/08 00:00:11;;;;;;;;;;;;;;;24.34;39.72;101004.71;103852;1291;74530;-82
2023/06/08 00:02:37;;;;;;;;;;;;;;;24.34;39.72;101006.13;103878;1286;62424;-82
2023/06/08 00:05:04;;;;;;;;;;;;;;;24.34;39.61;101008.47;103973;1291;61319;-82
2023/06/08 00:07:30;;;;;;;;;;;;;;;24.34;39.71;101011.86;103866;1287;64752;-82
2023/06/08 00:09:57;;;;;;;;;;;;;;;24.34;39.78;101012.40;103920;1292;61398;-82
2023/06/08 00:12:22;;;;;;;;;;;;;;;24.34;39.80;101011.13;103926;1284;61451;-82
2023/06/08 00:14:48;;;;;;;;;;;;;;;24.35;39.81;101008.59;103890;1286;61567;-82
2023/06/08 00:17:14;;;;;;;;;;;;;;;24.34;39.67;101011.84;104057;1288;61403;-82
2023/06/08 00:19:39;;;;;;;;;;;;;;;24.35;39.82;101008.59;104027;1286;61304;-82
2023/06/08 00:22:07;;;;;;;;;;;;;;;24.34;39.76;101009.89;103422;1289;61471;-82
2023/06/08 00:24:33;;;;;;;;;;;;;;;24.35;39.70;101007.69;103479;1289;62167;-82
2023/06/08 00:26:59;;;;;;;;;;;;;;;24.35;39.61;101009.64;103568;1291;61352;-82
2023/06/08 00:29:24;;;;;;;;;;;;;;;24.34;39.71;101011.68;103541;1291;61385;-82
2023/06/08 00:31:50;;;;;;;;;;;;;;;24.34;39.63;101013.34;103579;1286;62098;-82
2023/06/08 00:34:16;;;;;;;;;;;;;;;24.34;39.65;101014.23;103742;1288;61397;-82
2023/06/08 00:36:41;;;;;;;;;;;;;;;24.34;39.72;101013.88;103547;1286;61958;-81
2023/06/08 00:39:07;;;;;;;;;;;;;;;24.33;39.83;101015.38;103566;1286;61292;-81
2023/06/08 00:41:32;;;;;;;;;;;;;;;24.32;39.83;101017.40;103711;1286;61730;-81
2023/06/08 00:43:58;;;;;;;;;;;;;;;24.32;39.91;101015.28;103678;1290;61378;-81
2023/06/08 00:46:24;;;;;;;;;;;;;;;24.32;39.85;101012.77;103555;1287;62515;-82
2023/06/08 00:48:51;;;;;;;;;;;;;;;24.32;39.80;101013.15;103592;1286;61397;-82
2023/06/08 00:51:17;;;;;;;;;;;;;;;24.31;39.93;101011.00;103695;1289;62645;-82
2023/06/08 00:53:43;;;;;;;;;;;;;;;24.31;39.97;101012.83;103752;1288;61377;-81
2023/06/08 00:56:09;;;;;;;;;;;;;;;24.31;39.98;101009.98;103785;1286;61368;-81
2023/06/08 00:58:37;;;;;;;;;;;;;;;24.31;39.81;101012.86;103521;1290;61330;-82
2023/06/08 01:01:03;;;;;;;;;;;;;;;24.30;40.00;101010.92;103680;1286;61797;-81
2023/06/08 01:03:35;;;;;;;;;;;;;;;24.30;39.94;101011.11;103602;1287;64636;-81
2023/06/08 01:06:02;;;;;;;;;;;;;;;24.30;39.98;101010.75;103469;1286;65733;-81
2023/06/08 01:08:28;;;;;;;;;;;;;;;24.30;39.97;101012.94;103782;1288;61120;-83
2023/06/08 01:10:57;;;;;;;;;;;;;;;24.30;39.91;101013.13;103768;1289;61402;-82
2023/06/08 01:13:25;;;;;;;;;;;;;;;24.30;39.99;101009.73;103695;1287;63752;-82
2023/06/08 01:15:52;;;;;;;;;;;;;;;24.29;39.83;101011.20;103721;1292;74513;-82
2023/06/08 01:18:18;;;;;;;;;;;;;;;24.29;40.05;101013.92;103519;1287;62424;-82
2023/06/08 01:21:07;;;;;;;;;;;;;;;24.29;39.96;101007.27;103498;1291;61358;-82
2023/06/08 01:23:51;;;;;;;;;;;;;;;24.29;40.11;101004.92;103536;1286;73021;-82
2023/06/08 01:26:18;;;;;;;;;;;;;;;24.29;40.09;101005.29;103740;1287;75483;-82
2023/06/08 01:28:50;;;;;;;;;;;;;;;24.29;40.04;101009.23;103534;1289;61387;-82
2023/06/08 01:31:17;;;;;;;;;;;;;;;24.28;40.06;101010.39;103533;1291;61362;-82
2023/06/08 01:33:42;;;;;;;;;;;;;;;24.28;40.10;101008.77;103592;1292;72598;-81
2023/06/08 01:36:11;;;;;;;;;;;;;;;24.28;40.11;101008.75;103838;1289;61381;-82
2023/06/08 01:38:36;;;;;;;;;;;;;;;24.28;39.96;101009.52;103564;1292;61279;-82
2023/06/08 01:41:05;;;;;;;;;;;;;;;24.28;40.25;101005.92;103681;1289;61351;-82
2023/06/08 01:43:31;;;;;;;;;;;;;;;24.28;40.27;101006.09;103475;1292;73609;-82
2023/06/08 01:45:57;;;;;;;;;;;;;;;24.28;40.15;101008.79;103495;1286;61368;-82
2023/06/08 01:48:22;;;;;;;;;;;;;;;24.27;40.15;101010.10;103651;1290;61329;-82
2023/06/08 01:50:48;;;;;;;;;;;;;;;24.27;40.14;101011.35;103509;1289;62347;-82
2023/06/08 01:53:15;;;;;;;;;;;;;;;24.26;40.13;101011.39;103543;1290;61436;-82
2023/06/08 01:55:41;;;;;;;;;;;;;;;24.26;40.11;101017.15;103577;1291;61304;-82
2023/06/08 01:58:06;;;;;;;;;;;;;;;24.27;40.15;101015.89;103610;1289;61438;-82
2023/06/08 02:00:32;;;;;;;;;;;;;;;24.26;40.14;101018.09;103554;1289;61320;-82
2023/06/08 02:02:57;;;;;;;;;;;;;;;24.26;40.19;101018.44;103623;1286;61442;-81
2023/06/08 02:05:23;;;;;;;;;;;;;;;24.26;40.21;101020.05;103561;1292;62380;-81
2023/06/08 02:07:48;;;;;;;;;;;;;;;24.26;40.28;101019.35;103453;1289;61361;-81
2023/06/08 02:10:14;;;;;;;;;;;;;;;24.25;40.38;101014.36;103713;1288;61886;-82
2023/06/08 02:12:39;;;;;;;;;;;;;;;24.25;40.28;101014.00;103583;1289;61394;-81
2023/06/08 02:15:06;;;;;;;;;;;;;;;24.25;40.42;101011.47;103529;1287;61404;-80
2023/06/08 02:17:36;;;;;;;;;;;;;;;24.25;40.27;101012.95;103487;1292;61467;-81
2023/06/08 02:20:06;;;;;;;;;;;;;;;24.25;40.33;101009.55;103513;1289;74566;-81
2023/06/08 02:22:35;;;;;;;;;;;;;;;24.25;40.33;101006.49;103683;1286;61272;-81
2023/06/08 02:25:01;;;;;;;;;;;;;;;24.24;40.28;101009.04;103575;1289;62497;-81
2023/06/08 02:27:27;;;;;;;;;;;;;;;24.24;40.47;101004.92;103754;1290;62068;-81
2023/06/08 02:29:54;;;;;;;;;;;;;;;24.24;40.40;101000.12;103478;1292;61368;-81
2023/06/08 02:32:19;;;;;;;;;;;;;;;24.23;40.33;101002.65;103504;1289;61388;-82
2023/06/08 02:34:53;;;;;;;;;;;;;;;24.23;40.24;100999.77;103547;1299;61317;-81
2023/06/08 02:37:19;;;;;;;;;;;;;;;24.23;40.17;101002.65;103699;1285;73432;-81
2023/06/08 02:39:45;;;;;;;;;;;;;;;24.23;40.16;101007.52;103518;1291;62442;-81
2023/06/08 02:42:10;;;;;;;;;;;;;;;24.23;40.34;101003.04;103484;1289;61414;-81
2023/06/08 02:44:36;;;;;;;;;;;;;;;24.23;40.22;101005.36;103648;1284;61487;-82
2023/06/08 02:47:02;;;;;;;;;;;;;;;24.23;40.30;101005.54;103667;1293;61377;-81
2023/06/08 02:49:28;;;;;;;;;;;;;;;24.23;40.32;101001.96;103618;1289;61396;-81
2023/06/08 02:51:53;;;;;;;;;;;;;;;24.24;40.53;101006.42;103599;1290;61806;-82
2023/06/08 02:54:19;;;;;;;;;;;;;;;24.23;40.40;101005.92;103606;1286;61553;-83
2023/06/08 02:56:45;;;;;;;;;;;;;;;24.23;40.43;101007.55;103540;1292;61720;-82
2023/06/08 02:59:10;;;;;;;;;;;;;;;24.23;40.36;101010.39;103537;1292;61314;-82
2023/06/08 03:01:36;;;;;;;;;;;;;;;24.23;40.47;101009.17;103501;1286;62587;-82
2023/06/08 03:04:02;;;;;;;;;;;;;;;24.23;40.49;101011.85;103556;1289;61278;-82
2023/06/08 03:06:33;;;;;;;;;;;;;;;24.23;40.44;101011.48;103599;1289;61400;-82
2023/06/08 03:08:58;;;;;;;;;;;;;;;24.23;40.42;101014.73;103568;1286;73196;-82
2023/06/08 03:11:24;;;;;;;;;;;;;;;24.23;40.50;101015.30;103523;1292;61483;-83
2023/06/08 03:13:50;;;;;;;;;;;;;;;24.23;40.40;101021.21;103580;1292;61400;-83
2023/06/08 03:16:16;;;;;;;;;;;;;;;24.22;40.47;101017.46;103659;1286;61378;-82
2023/06/08 03:18:42;;;;;;;;;;;;;;;24.23;40.44;101020.11;103504;1287;61872;-82
2023/06/08 03:21:08;;;;;;;;;;;;;;;24.23;40.55;101016.36;103518;1286;61378;-82
2023/06/08 03:23:35;;;;;;;;;;;;;;;24.23;40.51;101017.27;103617;1288;61291;-82
2023/06/08 03:26:01;;;;;;;;;;;;;;;24.23;40.56;101019.05;103665;1286;61371;-82
2023/06/08 03:28:27;;;;;;;;;;;;;;;24.23;40.57;101015.27;103378;1292;62465;-82
2023/06/08 03:31:20;;;;;;;;;;;;;;;24.23;40.43;101015.63;103667;1285;61408;-82
2023/06/08 03:33:46;;;;;;;;;;;;;;;24.23;40.54;101020.84;102750;1292;75481;-82
2023/06/08 03:36:12;;;;;;;;;;;;;;;24.23;40.58;101019.91;102912;1292;62147;-82
2023/06/08 03:38:37;;;;;;;;;;;;;;;24.24;40.64;101017.92;102920;1298;61422;-82
2023/06/08 03:41:03;;;;;;;;;;;;;;;24.24;40.64;101017.55;103222;1297;61401;-82
2023/06/08 03:43:29;;;;;;;;;;;;;;;24.24;40.64;101020.02;103048;1295;62123;-82
2023/06/08 03:45:55;;;;;;;;;;;;;;;24.24;40.64;101019.46;102918;1295;65573;-82
2023/06/08 03:48:20;;;;;;;;;;;;;;;24.24;40.65;101024.70;103011;1298;61397;-82
2023/06/08 03:50:46;;;;;;;;;;;;;;;24.24;40.70;101024.52;102929;1298;61398;-82
2023/06/08 03:53:11;;;;;;;;;;;;;;;24.25;40.66;101022.48;102836;1301;61477;-82
2023/06/08 03:55:37;;;;;;;;;;;;;;;24.25;40.70;101022.14;103140;1295;61428;-82
2023/06/08 03:58:03;;;;;;;;;;;;;;;24.25;40.64;101020.17;103118;1294;74606;-82
2023/06/08 04:00:29;;;;;;;;;;;;;;;24.25;40.70;101022.11;103163;1294;62412;-82
2023/06/08 04:02:57;;;;;;;;;;;;;;;24.25;40.68;101018.48;103279;1297;61478;-82
2023/06/08 04:05:23;;;;;;;;;;;;;;;24.26;40.72;101017.53;103164;1293;63924;-83
2023/06/08 04:07:50;;;;;;;;;;;;;;;24.26;40.71;101018.98;103027;1300;61495;-82
2023/06/08 04:10:16;;;;;;;;;;;;;;;24.26;40.80;101015.54;103185;1289;61410;-82
2023/06/08 04:12:42;;;;;;;;;;;;;;;24.27;40.82;101018.20;103900;1291;62597;-82
2023/06/08 04:15:08;;;;;;;;;;;;;;;24.28;40.70;101018.34;103984;1286;61380;-82
2023/06/08 04:17:33;;;;;;;;;;;;;;;24.28;40.76;101018.68;103698;1286;61383;-82
2023/06/08 04:19:58;;;;;;;;;;;;;;;24.28;40.63;101022.63;103740;1291;61406;-82
2023/06/08 04:22:24;;;;;;;;;;;;;;;24.28;40.69;101020.64;103707;1286;61412;-82
2023/06/08 04:24:50;;;;;;;;;;;;;;;24.28;40.65;101021.73;103575;1288;61443;-82
2023/06/08 04:27:16;;;;;;;;;;;;;;;24.29;40.71;101018.98;103495;1286;61333;-82
2023/06/08 04:29:42;;;;;;;;;;;;;;;24.29;40.66;101019.48;103490;1286;62459;-82
2023/06/08 04:32:08;;;;;;;;;;;;;;;24.29;40.68;101020.60;105085;1286;61252;-82
2023/06/08 04:34:34;;;;;;;;;;;;;;;24.30;40.66;101020.52;104235;1286;61832;-82
2023/06/08 04:37:00;;;;;;;;;;;;;;;24.30;40.67;101018.18;104475;1286;61374;-82
2023/06/08 04:39:25;;;;;;;;;;;;;;;24.30;40.67;101024.76;103847;1288;61396;-82
2023/06/08 04:41:53;;;;;;;;;;;;;;;24.31;40.55;101024.15;103605;1286;74701;-82
2023/06/08 04:44:20;;;;;;;;;;;;;;;24.32;40.69;101023.03;103516;1292;61294;-83
2023/06/08 04:46:46;;;;;;;;;;;;;;;24.32;40.61;101021.73;103573;1289;61375;-82
2023/06/08 04:49:14;;;;;;;;;;;;;;;24.33;40.56;101020.98;103745;1285;61324;-82
2023/06/08 04:51:40;;;;;;;;;;;;;;;24.33;40.60;101026.00;103580;1288;75491;-82
2023/06/08 04:54:13;;;;;;;;;;;;;;;24.33;40.56;101027.45;103659;1288;61288;-83
2023/06/08 04:56:41;;;;;;;;;;;;;;;24.32;40.43;101029.80;103710;1292;62428;-84
2023/06/08 04:59:10;;;;;;;;;;;;;;;24.32;40.43;101029.46;104047;1287;72535;-83
2023/06/08 05:01:36;;;;;;;;;;;;;;;24.32;40.40;101027.30;103808;1289;66030;-83
2023/06/08 05:04:02;;;;;;;;;;;;;;;24.32;40.35;101029.66;104017;1286;62655;-82
2023/06/08 05:06:27;;;;;;;;;;;;;;;24.31;40.22;101025.41;103927;1289;61276;-82
2023/06/08 05:08:53;;;;;;;;;;;;;;;24.32;40.31;101023.95;103997;1288;61404;-82
2023/06/08 05:11:18;;;;;;;;;;;;;;;24.32;40.31;101024.80;103945;1286;62455;-82
2023/06/08 05:13:44;;;;;;;;;;;;;;;24.33;40.44;101024.39;103803;1286;76500;-82
2023/06/08 05:16:10;;;;;;;;;;;;;;;24.34;40.29;101027.36;103936;1285;61436;-82
2023/06/08 05:18:35;;;;;;;;;;;;;;;24.34;40.31;101028.02;103949;1286;61329;-82
2023/06/08 05:21:02;;;;;;;;;;;;;;;24.35;40.24;101030.32;103753;1286;61389;-82
2023/06/08 05:23:27;;;;;;;;;;;;;;;24.36;40.31;101032.96;103933;1289;61371;-82
2023/06/08 05:25:53;;;;;;;;;;;;;;;24.36;40.35;101028.59;104169;1288;62129;-82
2023/06/08 05:28:18;;;;;;;;;;;;;;;24.36;40.27;101029.31;104168;1285;61339;-83
2023/06/08 05:30:44;;;;;;;;;;;;;;;24.37;40.25;101038.25;104067;1286;61487;-83
2023/06/08 05:33:10;;;;;;;;;;;;;;;24.37;40.39;101039.36;103925;1291;61554;-83
2023/06/08 05:35:35;;;;;;;;;;;;;;;24.37;40.33;101039.52;104679;1286;61326;-83
2023/06/08 05:38:03;;;;;;;;;;;;;;;24.37;40.22;101043.59;103995;1286;62531;-83
2023/06/08 05:40:28;;;;;;;;;;;;;;;24.38;40.50;101046.41;104011;1286;61371;-83
2023/06/08 05:42:54;;;;;;;;;;;;;;;24.39;40.36;101049.56;104185;1286;61450;-83
2023/06/08 05:45:20;;;;;;;;;;;;;;;24.39;40.51;101052.27;104802;1286;61311;-83
2023/06/08 05:47:46;;;;;;;;;;;;;;;24.40;40.27;101053.63;104736;1286;66771;-83
2023/06/08 05:50:11;;;;;;;;;;;;;;;24.41;40.33;101055.73;104783;1286;61343;-83
2023/06/08 05:52:37;;;;;;;;;;;;;;;24.42;40.36;101058.00;104122;1285;61429;-84
2023/06/08 05:55:02;;;;;;;;;;;;;;;24.42;40.43;101058.17;104685;1288;61387;-84
2023/06/08 05:57:28;;;;;;;;;;;;;;;24.41;40.58;101059.17;104985;1286;61319;-82
2023/06/08 05:59:53;;;;;;;;;;;;;;;24.41;40.75;101057.19;105312;1287;66772;-81
2023/06/08 06:02:19;;;;;;;;;;;;;;;24.42;40.51;101059.42;104494;1285;61295;-81
2023/06/08 06:04:44;;;;;;;;;;;;;;;24.44;40.71;101065.57;104834;1290;61336;-82
2023/06/08 06:07:10;;;;;;;;;;;;;;;24.45;40.70;101063.66;104501;1286;61624;-81
2023/06/08 06:09:35;;;;;;;;;;;;;;;24.47;40.52;101060.84;104542;1285;59733;-81
2023/06/08 06:12:01;;;;;;;;;;;;;;;24.48;40.52;101062.21;104600;1284;66861;-82
2023/06/08 06:14:27;;;;;;;;;;;;;;;24.49;40.56;101055.08;104959;1286;61410;-82
2023/06/08 06:16:52;;;;;;;;;;;;;;;24.50;40.54;101054.30;104629;1285;61316;-82
2023/06/08 06:19:18;;;;;;;;;;;;;;;24.50;40.64;101060.38;104256;1288;61332;-81
2023/06/08 06:21:43;;;;;;;;;;;;;;;24.50;40.49;101063.07;104396;1286;61305;-82
2023/06/08 06:24:09;;;;;;;;;;;;;;;24.51;40.60;101064.13;104441;1286;61450;-82
2023/06/08 06:26:35;;;;;;;;;;;;;;;24.52;40.75;101063.15;104176;1286;61307;-83
2023/06/08 06:29:01;;;;;;;;;;;;;;;24.52;40.65;101059.89;103946;1286;61902;-82
2023/06/08 06:31:26;;;;;;;;;;;;;;;24.53;40.71;101063.41;104182;1286;62505;-82
2023/06/08 06:33:52;;;;;;;;;;;;;;;24.53;40.66;101059.98;104178;1288;61381;-82
2023/06/08 06:36:17;;;;;;;;;;;;;;;24.53;40.63;101057.09;104119;1285;61444;-82
2023/06/08 06:38:43;;;;;;;;;;;;;;;24.53;40.62;101057.23;103928;1286;61371;-82
2023/06/08 06:41:09;;;;;;;;;;;;;;;24.54;40.68;101051.64;104388;1286;61308;-82
2023/06/08 06:43:34;;;;;;;;;;;;;;;24.54;40.73;101055.74;104000;1290;61333;-82
2023/06/08 06:46:00;;;;;;;;;;;;;;;24.54;40.62;101058.26;103961;1289;61393;-82
2023/06/08 06:48:25;;;;;;;;;;;;;;;24.54;40.77;101054.09;103885;1286;61304;-83
2023/06/08 06:50:51;;;;;;;;;;;;;;;24.55;40.70;101052.83;104139;1286;61343;-83
2023/06/08 06:53:16;;;;;;;;;;;;;;;24.54;40.78;101054.63;103923;1286;61817;-83
2023/06/08 06:55:42;;;;;;;;;;;;;;;24.53;40.63;101056.57;104147;1285;61339;-83
2023/06/08 06:58:08;;;;;;;;;;;;;;;24.51;40.65;101048.40;104169;1286;61374;-83
2023/06/08 07:00:37;;;;;;;;;;;;;;;24.51;40.68;101045.02;104028;1286;63438;-83
2023/06/08 07:03:09;;;;;;;;;;;;;;;24.51;40.71;101049.14;103878;1286;61231;-83
2023/06/08 07:05:34;;;;;;;;;;;;;;;24.51;40.61;101043.46;104028;1289;73743;-83
2023/06/08 07:08:01;;;;;;;;;;;;;;;24.51;40.67;101043.77;104005;1286;61419;-82
2023/06/08 07:10:26;;;;;;;;;;;;;;;24.52;40.66;101036.67;104239;1285;61282;-83
2023/06/08 07:12:51;;;;;;;;;;;;;;;24.52;40.60;101038.67;104191;1286;61440;-82
2023/06/08 07:15:18;;;;;;;;;;;;;;;24.53;40.60;101038.39;103793;1286;639263;-82
2023/06/08 07:17:45;;;;;;;;;;;;;;;24.53;40.62;101039.61;104195;1288;65263;-82
2023/06/08 07:20:11;;;;;;;;;;;;;;;24.54;40.68;101035.42;103948;1286;74431;-82
2023/06/08 07:22:37;;;;;;;;;;;;;;;24.54;40.74;101036.82;103953;1289;61307;-82
2023/06/08 07:25:03;;;;;;;;;;;;;;;24.55;40.67;101033.20;103937;1286;61318;-83
2023/06/08 07:27:29;;;;;;;;;;;;;;;24.55;40.65;101034.79;103987;1286;61358;-82
2023/06/08 07:29:55;;;;;;;;;;;;;;;24.56;40.62;101033.14;103908;1286;62425;-83
2023/06/08 07:32:20;;;;;;;;;;;;;;;24.56;40.70;101027.35;104208;1286;61368;-82
2023/06/08 07:34:47;;;;;;;;;;;;;;;24.56;40.63;101025.33;103938;1285;62481;-82
2023/06/08 07:37:13;;;;;;;;;;;;;;;24.56;40.72;101023.17;103988;1286;61135;-82
2023/06/08 07:39:39;;;;;;;;;;;;;;;24.55;40.41;101021.99;104131;1285;61288;-82
2023/06/08 07:42:05;;;;;;;;;;;;;;;24.53;40.58;101016.09;104228;1286;62576;-82
2023/06/08 07:44:30;;;;;;;;;;;;;;;24.51;40.46;101013.48;104196;1285;61330;-83
2023/06/08 07:46:56;;;;;;;;;;;;;;;24.52;40.48;101011.88;104630;1284;61394;-82
2023/06/08 07:49:23;;;;;;;;;;;;;;;24.53;40.41;101010.52;104466;1285;61247;-82
2023/06/08 07:51:49;;;;;;;;;;;;;;;24.53;40.53;101007.77;104457;1287;61312;-82
2023/06/08 07:54:19;;;;;;;;;;;;;;;24.53;40.62;101005.41;104603;1289;61518;-82
2023/06/08 07:56:48;;;;;;;;;;;;;;;24.54;40.56;101008.60;104420;1286;61397;-82
2023/06/08 07:59:13;;;;;;;;;;;;;;;24.54;40.65;101013.80;104410;1286;61227;-83
2023/06/08 08:01:39;;;;;;;;;;;;;;;24.55;40.57;101016.11;104773;1286;61416;-83
2023/06/08 08:04:04;;;;;;;;;;;;;;;24.55;40.52;101017.52;104751;1286;61914;-82
2023/06/08 08:06:30;;;;;;;;;;;;;;;24.54;40.38;101020.98;104313;1285;61432;-82
2023/06/08 08:08:55;;;;;;;;;;;;;;;24.55;40.47;101018.95;103968;1286;61412;-81
2023/06/08 08:11:21;;;;;;;;;;;;;;;24.55;40.33;101015.73;103676;1286;62538;-82
2023/06/08 08:13:47;;;;;;;;;;;;;;;24.55;40.38;101012.15;104021;1285;61384;-82
2023/06/08 08:16:13;;;;;;;;;;;;;;;24.54;40.43;101014.37;104073;1286;61447;-82
2023/06/08 08:18:38;;;;;;;;;;;;;;;24.54;40.34;101009.85;103938;1286;61497;-82
2023/06/08 08:21:04;;;;;;;;;;;;;;;24.54;40.33;101012.58;104423;1285;61418;-82
2023/06/08 08:23:29;;;;;;;;;;;;;;;24.54;40.36;101012.23;103643;1286;61552;-82
2023/06/08 08:25:55;;;;;;;;;;;;;;;24.53;40.29;101010.64;103989;1291;61444;-82
2023/06/08 08:28:21;;;;;;;;;;;;;;;24.53;40.26;101014.45;103704;1285;61375;-83
2023/06/08 08:30:46;;;;;;;;;;;;;;;24.53;40.26;101011.38;103812;1286;62114;-81
2023/06/08 08:33:12;;;;;;;;;;;;;;;24.52;40.28;101011.42;103684;1285;61460;-82
2023/06/08 08:35:37;;;;;;;;;;;;;;;24.52;40.17;101010.23;104139;1285;61469;-82
2023/06/08 08:38:03;;;;;;;;;;;;;;;24.51;40.13;101009.54;103888;1288;61426;-83
2023/06/08 08:40:29;;;;;;;;;;;;;;;24.51;39.92;101005.85;103748;1287;61388;-82
2023/06/08 08:43:12;;;;;;;;;;;;;;;24.50;39.85;100999.77;103593;1286;61442;-82
2023/06/08 08:45:38;;;;;;;;;;;;;;;24.51;39.86;101002.40;103640;1286;61760;-82
2023/06/08 08:48:04;;;;;;;;;;;;;;;24.52;39.95;101005.40;103682;1286;61378;-82
2023/06/08 08:50:34;;;;;;;;;;;;;;;24.50;39.83;101002.23;104135;1285;61373;-83
2023/06/08 08:53:00;;;;;;;;;;;;;;;24.51;39.66;101005.11;105385;1285;61311;-83
2023/06/08 08:55:27;;;;;;;;;;;;;;;24.51;39.66;101006.55;103925;1285;61353;-82
2023/06/08 08:57:56;;;;;;;;;;;;;;;24.51;39.70;101009.57;103995;1289;61407;-82
2023/06/08 09:00:22;;;;;;;;;;;;;;;24.52;39.61;101016.14;104772;1285;74318;-82
2023/06/08 09:02:50;;;;;;;;;;;;;;;24.52;39.50;101012.02;104489;1286;59441;-83
2023/06/08 09:05:15;;;;;;;;;;;;;;;24.51;39.39;101002.95;104697;1285;61280;-83
2023/06/08 09:07:41;;;;;;;;;;;;;;;24.51;39.45;100998.23;104968;1286;61616;-83
2023/06/08 09:10:16;;;;;;;;;;;;;;;24.52;39.34;100996.02;104684;1286;61487;-82
2023/06/08 09:12:42;;;;;;;;;;;;;;;24.52;39.38;101001.70;104534;1284;61291;-82
2023/06/08 09:15:08;;;;;;;;;;;;;;;24.53;39.34;100996.61;104215;1284;62521;-82
2023/06/08 09:17:38;;;;;;;;;;;;;;;24.54;39.41;100995.63;104275;1285;61317;-82
2023/06/08 09:20:12;;;;;;;;;;;;;;;24.54;39.29;100997.45;104468;1286;75493;-83
2023/06/08 09:22:38;;;;;;;;;;;;;;;24.55;39.17;100993.40;104190;1285;61314;-82
2023/06/08 09:25:04;;;;;;;;;;;;;;;24.55;39.13;101000.09;104075;1285;61349;-82
2023/06/08 09:27:31;;;;;;;;;;;;;;;24.55;39.15;101001.13;104235;1286;61448;-82
2023/06/08 09:29:57;;;;;;;;;;;;;;;24.55;39.11;100999.13;104294;1284;61249;-82
2023/06/08 09:32:31;;;;;;;;;;;;;;;24.56;39.15;100992.45;104131;1284;61368;-84
2023/06/08 09:35:01;;;;;;;;;;;;;;;24.55;39.11;100991.38;104262;1285;61125;-82
2023/06/08 09:37:30;;;;;;;;;;;;;;;24.56;39.11;100995.15;104046;1286;72802;-82
2023/06/08 09:39:56;;;;;;;;;;;;;;;24.55;39.11;100998.81;104845;1286;73328;-82
2023/06/08 09:42:21;;;;;;;;;;;;;;;24.55;39.05;100988.02;104321;1286;61394;-82
2023/06/08 09:44:47;;;;;;;;;;;;;;;24.55;38.85;100984.95;103690;1287;61547;-83
2023/06/08 09:47:18;;;;;;;;;;;;;;;24.55;38.90;100984.45;103774;1290;61422;-82
2023/06/08 09:49:44;;;;;;;;;;;;;;;24.55;38.84;100975.80;103985;1287;74396;-82
2023/06/08 09:52:10;;;;;;;;;;;;;;;24.55;38.74;100980.31;104133;1285;61381;-82
2023/06/08 09:54:36;;;;;;;;;;;;;;;24.54;38.81;100973.54;104356;1284;61406;-82
2023/06/08 09:57:01;;;;;;;;;;;;;;;24.53;38.68;100974.48;104347;1286;61425;-82
2023/06/08 09:59:33;;;;;;;;;;;;;;;24.54;38.80;100964.71;104087;1286;61405;-81
2023/06/08 10:02:00;;;;;;;;;;;;;;;24.54;38.65;100958.95;104292;1290;61262;-82
2023/06/08 10:04:35;;;;;;;;;;;;;;;24.53;38.57;100960.98;104675;1285;61503;-82
2023/06/08 10:07:06;;;;;;;;;;;;;;;24.54;38.62;100951.96;104387;1286;63754;-82
2023/06/08 10:09:32;;;;;;;;;;;;;;;24.55;38.66;100954.21;104333;1285;73414;-82
2023/06/08 10:11:58;;;;;;;;;;;;;;;24.55;38.77;100949.70;104441;1286;61490;-82
2023/06/08 10:14:25;;;;;;;;;;;;;;;24.55;38.55;100943.38;104264;1285;61993;-82
2023/06/08 10:16:50;;;;;;;;;;;;;;;24.56;38.64;100936.63;104111;1289;62971;-82
2023/06/08 10:19:17;;;;;;;;;;;;;;;24.56;38.55;100937.17;104284;1286;61304;-82
2023/06/08 10:21:43;;;;;;;;;;;;;;;24.57;38.56;100935.70;104787;1285;170877;-84
2023/06/08 10:24:08;;;;;;;;;;;;;;;24.57;38.54;100929.37;104080;1286;61467;-84
2023/06/08 10:26:34;;;;;;;;;;;;;;;24.57;38.53;100934.37;103875;1288;61335;-84
2023/06/08 10:29:10;;;;;;;;;;;;;;;24.58;38.60;100926.24;103719;1289;61332;-84
2023/06/08 10:31:39;;;;;;;;;;;;;;;24.58;38.55;100916.70;103729;1289;61304;-84
2023/06/08 10:34:06;;;;;;;;;;;;;;;24.58;38.47;100913.95;103858;1288;61275;-84
2023/06/08 10:36:40;;;;;;;;;;;;;;;24.58;38.46;100908.73;103531;1290;63814;-84
2023/06/08 10:39:13;;;;;;;;;;;;;;;24.59;38.34;100910.15;103638;1288;75579;-84
2023/06/08 10:41:42;;;;;;;;;;;;;;;24.58;38.37;100911.25;103862;1288;61275;-84
2023/06/08 10:44:23;;;;;;;;;;;;;;;24.58;38.35;100909.84;103866;1293;61266;-84
2023/06/08 10:46:54;;;;;;;;;;;;;;;24.58;38.46;100908.75;103983;1288;73122;-84
2023/06/08 10:49:22;;;;;;;;;;;;;;;24.58;38.37;100900.30;103970;1288;65606;-83
2023/06/08 10:51:58;;;;;;;;;;;;;;;24.58;38.32;100898.48;103954;1291;61416;-84
2023/06/08 10:54:24;;;;;;;;;;;;;;;24.58;38.41;100897.98;103595;1288;61401;-84
2023/06/08 10:56:52;;;;;;;;;;;;;;;24.57;38.32;100889.94;104110;1289;61371;-84
2023/06/08 10:59:36;;;;;;;;;;;;;;;24.57;38.23;100890.84;104081;1288;74378;-84
2023/06/08 11:02:05;;;;;;;;;;;;;;;24.57;38.19;100887.47;104395;1289;61276;-85
2023/06/08 11:04:32;;;;;;;;;;;;;;;24.56;38.22;100881.58;104056;1288;61148;-84
2023/06/08 11:07:00;;;;;;;;;;;;;;;24.57;38.21;100872.92;103941;1288;61362;-85
2023/06/08 11:09:27;;;;;;;;;;;;;;;24.57;38.13;100873.58;104634;1288;74262;-85
2023/06/08 11:11:53;;;;;;;;;;;;;;;24.58;38.01;100873.16;103960;1288;61923;-84
2023/06/08 11:14:19;;;;;;;;;;;;;;;24.57;38.11;100864.20;106062;1288;59268;-85
2023/06/08 11:16:48;;;;;;;;;;;;;;;24.58;38.04;100860.94;104187;1289;64683;-84
2023/06/08 11:19:16;;;;;;;;;;;;;;;24.58;38.12;100859.09;104205;1288;65720;-84
2023/06/08 11:21:41;;;;;;;;;;;;;;;24.59;38.04;100857.75;105611;1288;61292;-85
2023/06/08 11:24:07;;;;;;;;;;;;;;;24.60;38.02;100862.15;103920;1288;61478;-84
2023/06/08 11:26:36;;;;;;;;;;;;;;;24.61;37.98;100862.64;103839;1288;61372;-84
2023/06/08 11:29:03;;;;;;;;;;;;;;;24.62;38.09;100858.47;104991;1288;75714;-84
2023/06/08 11:31:38;;;;;;;;;;;;;;;24.63;38.00;100852.48;103963;1288;61865;-84
2023/06/08 11:34:04;;;;;;;;;;;;;;;24.63;37.96;100849.39;103572;1288;61305;-84
2023/06/08 11:36:30;;;;;;;;;;;;;;;24.63;37.90;100845.98;103650;1292;61407;-84
2023/06/08 11:38:56;;;;;;;;;;;;;;;24.63;37.88;100848.45;103785;1290;62533;-84
2023/06/08 11:41:23;;;;;;;;;;;;;;;24.63;37.81;100845.76;103887;1288;61980;-84
2023/06/08 11:43:52;;;;;;;;;;;;;;;24.64;37.83;100839.26;103576;1289;61317;-84
2023/06/08 11:46:18;;;;;;;;;;;;;;;24.63;37.70;100844.52;103637;1288;73482;-84
2023/06/08 11:48:43;;;;;;;;;;;;;;;24.63;37.75;100838.22;103876;1291;61366;-84
2023/06/08 11:51:09;;;;;;;;;;;;;;;24.64;37.59;100838.36;103942;1288;61549;-84
2023/06/08 11:53:34;;;;;;;;;;;;;;;24.64;37.61;100839.08;103971;1288;62493;-84
2023/06/08 11:56:00;;;;;;;;;;;;;;;24.64;37.53;100834.02;103815;1289;61457;-84
2023/06/08 11:58:27;;;;;;;;;;;;;;;24.64;37.56;100834.56;103689;1288;63943;-85
2023/06/08 12:01:02;;;;;;;;;;;;;;;24.64;37.40;100831.70;103739;1288;61373;-84
2023/06/08 12:03:31;;;;;;;;;;;;;;;24.64;37.58;100829.73;103701;1288;61273;-84
2023/06/08 12:05:57;;;;;;;;;;;;;;;24.64;37.51;100829.87;103905;1288;61350;-84
2023/06/08 12:08:24;;;;;;;;;;;;;;;24.65;37.50;100827.45;103789;1289;61171;-84
2023/06/08 12:10:50;;;;;;;;;;;;;;;24.65;37.54;100830.14;103637;1288;66707;-84
2023/06/08 12:13:16;;;;;;;;;;;;;;;24.65;37.46;100824.73;103825;1289;61292;-85
2023/06/08 12:15:43;;;;;;;;;;;;;;;24.66;37.44;100823.77;103806;1288;61424;-84
2023/06/08 12:18:11;;;;;;;;;;;;;;;24.66;37.43;100825.39;103811;1288;61289;-84
2023/06/08 12:20:37;;;;;;;;;;;;;;;24.66;37.39;100824.84;103802;1288;66036;-84
2023/06/08 12:23:03;;;;;;;;;;;;;;;24.67;37.51;100819.52;103636;1289;61275;-84